createdAt,value
2023-03-18T00:01:07.628Z,7.88
2023-03-18T00:03:40.570Z,8.18
2023-03-18T00:06:14.480Z,8.60
2023-03-18T00:08:42.797Z,7.90
2023-03-18T00:11:11.399Z,7.35
2023-03-18T00:13:39.698Z,5.90
2023-03-18T00:16:07.933Z,10.02
2023-03-18T00:18:35.435Z,6.82
2023-03-18T00:21:04.270Z,6.82
2023-03-18T00:23:32.845Z,6.85
2023-03-18T00:26:01.442Z,7.60
2023-03-18T00:28:29.156Z,11.52
2023-03-18T00:30:58.419Z,9.48
2023-03-18T00:33:25.877Z,8.98
2023-03-18T00:35:53.316Z,11.95
2023-03-18T00:38:23.364Z,9.38
2023-03-18T00:41:01.683Z,7.13
2023-03-18T00:43:33.920Z,5.47
2023-03-18T00:46:03.862Z,6.38
2023-03-18T00:48:31.468Z,5.72
2023-03-18T00:50:58.513Z,6.13
2023-03-18T00:53:26.204Z,10.73
2023-03-18T00:55:53.933Z,6.32
2023-03-18T00:58:21.128Z,8.70
2023-03-18T01:00:48.636Z,5.75
2023-03-18T01:03:15.646Z,7.93
2023-03-18T01:05:42.613Z,11.80
2023-03-18T01:08:09.835Z,7.95
2023-03-18T01:10:36.947Z,8.07
2023-03-18T01:13:04.521Z,8.32
2023-03-18T01:15:31.627Z,8.35
2023-03-18T01:17:58.658Z,7.93
2023-03-18T01:20:26.699Z,8.00
2023-03-18T01:22:57.023Z,6.82
2023-03-18T01:25:24.478Z,4.97
2023-03-18T01:27:54.246Z,11.07
2023-03-18T01:30:21.591Z,6.03
2023-03-18T01:32:49.040Z,6.53
2023-03-18T01:35:16.702Z,7.20
2023-03-18T01:37:46.937Z,7.75
2023-03-18T01:40:15.475Z,6.78
2023-03-18T01:42:49.710Z,7.40
2023-03-18T01:45:28.611Z,6.45
2023-03-18T01:47:58.550Z,7.22
2023-03-18T01:50:30.972Z,8.00
2023-03-18T01:53:09.687Z,7.57
2023-03-18T01:55:37.887Z,6.88
2023-03-18T01:58:19.738Z,9.68
2023-03-18T02:00:53.679Z,7.18
2023-03-18T02:03:21.341Z,8.02
2023-03-18T02:05:50.411Z,8.48
2023-03-18T02:08:18.587Z,7.15
2023-03-18T02:10:46.108Z,7.15
2023-03-18T02:13:16.111Z,6.72
2023-03-18T02:16:06.866Z,7.28
2023-03-18T02:18:39.699Z,6.97
2023-03-18T02:21:43.562Z,9.07
2023-03-18T02:24:10.727Z,8.13
2023-03-18T02:26:48.301Z,11.35
2023-03-18T02:29:21.541Z,7.70
2023-03-18T02:31:57.409Z,5.57
2023-03-18T02:34:25.647Z,9.02
2023-03-18T02:36:55.198Z,9.85
2023-03-18T02:39:23.121Z,9.30
2023-03-18T02:41:53.353Z,4.93
2023-03-18T02:44:21.987Z,7.60
2023-03-18T02:47:21.191Z,6.70
2023-03-18T02:49:49.635Z,5.63
2023-03-18T02:52:16.831Z,6.63
2023-03-18T02:54:44.044Z,10.52
2023-03-18T02:57:11.240Z,13.70
2023-03-18T02:59:40.298Z,7.53
2023-03-18T03:02:08.366Z,10.43
2023-03-18T03:04:35.467Z,7.45
2023-03-18T03:07:02.827Z,7.00
2023-03-18T03:09:43.731Z,15.73
2023-03-18T03:12:10.798Z,10.82
2023-03-18T03:14:43.788Z,7.45
2023-03-18T03:17:11.069Z,6.93
2023-03-18T03:19:38.358Z,7.75
2023-03-18T03:22:05.468Z,9.82
2023-03-18T03:24:32.716Z,8.00
2023-03-18T03:26:59.798Z,8.02
2023-03-18T03:29:36.565Z,7.97
2023-03-18T03:32:04.000Z,9.55
2023-03-18T03:34:31.089Z,8.45
2023-03-18T03:36:58.091Z,6.72
2023-03-18T03:39:29.765Z,16.63
2023-03-18T03:41:57.025Z,6.85
2023-03-18T03:44:24.490Z,10.55
2023-03-18T03:46:51.699Z,6.90
2023-03-18T03:49:19.274Z,8.10
2023-03-18T03:51:46.480Z,6.32
2023-03-18T03:54:14.056Z,5.97
2023-03-18T03:56:42.300Z,9.93
2023-03-18T03:59:11.620Z,5.88
2023-03-18T04:02:05.585Z,10.73
2023-03-18T04:04:32.787Z,6.90
2023-03-18T04:06:59.805Z,7.00
2023-03-18T04:09:27.156Z,6.80
2023-03-18T04:11:54.674Z,5.18
2023-03-18T04:14:22.199Z,7.50
2023-03-18T04:16:50.007Z,6.05
2023-03-18T04:19:17.808Z,8.82
2023-03-18T04:21:44.878Z,11.25
2023-03-18T04:24:11.863Z,11.43
2023-03-18T04:26:39.771Z,7.60
2023-03-18T04:29:06.931Z,11.32
2023-03-18T04:31:34.054Z,7.35
2023-03-18T04:34:01.122Z,12.80
2023-03-18T04:36:29.399Z,7.97
2023-03-18T04:38:57.092Z,8.63
2023-03-18T04:41:25.271Z,9.20
2023-03-18T04:43:54.565Z,7.82
2023-03-18T04:46:22.884Z,9.27
2023-03-18T04:48:50.448Z,5.28
2023-03-18T04:51:18.878Z,15.07
2023-03-18T04:53:46.897Z,12.77
2023-03-18T04:56:16.166Z,8.35
2023-03-18T04:58:48.663Z,6.57
2023-03-18T05:01:20.469Z,4.97
2023-03-18T05:03:48.033Z,11.68
2023-03-18T05:06:26.822Z,14.05
2023-03-18T05:09:07.301Z,7.63
2023-03-18T05:11:35.438Z,8.40
2023-03-18T05:14:34.838Z,9.68
2023-03-18T05:17:04.450Z,8.27
2023-03-18T05:22:22.404Z,10.70
2023-03-18T05:24:55.841Z,10.85
2023-03-18T05:27:25.223Z,8.32
2023-03-18T05:29:59.323Z,11.63
2023-03-18T05:32:38.061Z,22.10
2023-03-18T05:35:07.693Z,8.82
2023-03-18T05:37:43.505Z,15.30
2023-03-18T05:40:12.859Z,11.10
2023-03-18T05:45:29.333Z,7.28
2023-03-18T05:47:57.310Z,11.85
2023-03-18T05:50:36.166Z,10.95
2023-03-18T05:53:07.276Z,13.48
2023-03-18T05:55:38.350Z,10.15
2023-03-18T05:58:05.946Z,9.32
2023-03-18T06:00:35.250Z,16.48
2023-03-18T06:03:02.663Z,8.90
2023-03-18T06:05:31.408Z,8.95
2023-03-18T06:07:59.726Z,11.45
2023-03-18T06:10:27.284Z,9.18
2023-03-18T06:12:55.726Z,12.32
2023-03-18T06:15:24.400Z,10.10
2023-03-18T06:17:51.602Z,7.28
2023-03-18T06:20:19.610Z,11.00
2023-03-18T06:22:49.936Z,9.95
2023-03-18T06:25:19.335Z,17.48
2023-03-18T06:27:48.079Z,9.27
2023-03-18T06:30:18.740Z,10.93
2023-03-18T06:32:47.386Z,14.05
2023-03-18T06:35:15.798Z,13.27
2023-03-18T06:37:44.095Z,11.50
2023-03-18T06:40:12.389Z,10.52
2023-03-18T06:42:41.257Z,12.43
2023-03-18T06:45:25.793Z,7.80
2023-03-18T06:48:00.844Z,15.05
2023-03-18T06:50:28.352Z,12.48
2023-03-18T06:52:56.780Z,11.82
2023-03-18T06:55:29.516Z,14.95
2023-03-18T06:57:58.243Z,14.57
2023-03-18T07:00:34.133Z,8.20
2023-03-18T07:03:01.605Z,11.60
2023-03-18T07:05:29.459Z,15.15
2023-03-18T07:07:57.271Z,11.48
2023-03-18T07:10:28.028Z,13.20
2023-03-18T07:13:02.302Z,8.35
2023-03-18T07:15:29.466Z,10.32
2023-03-18T07:18:00.554Z,10.23
2023-03-18T07:20:28.797Z,11.93
2023-03-18T07:22:55.808Z,11.45
2023-03-18T07:25:23.094Z,12.00
2023-03-18T07:27:50.699Z,12.82
2023-03-18T07:30:19.525Z,8.02
2023-03-18T07:32:46.946Z,10.38
2023-03-18T07:35:14.338Z,11.98
2023-03-18T07:37:41.824Z,9.35
2023-03-18T07:40:10.337Z,9.43
2023-03-18T07:42:38.010Z,12.32
2023-03-18T07:45:07.781Z,10.60
2023-03-18T07:47:35.207Z,19.33
2023-03-18T07:50:02.801Z,9.02
2023-03-18T07:52:30.182Z,9.95
2023-03-18T07:54:57.177Z,11.68
2023-03-18T07:57:24.311Z,8.48
2023-03-18T07:59:51.981Z,8.77
2023-03-18T08:02:20.473Z,9.02
2023-03-18T08:04:47.787Z,8.63
2023-03-18T08:07:15.044Z,8.93
2023-03-18T08:09:44.403Z,6.47
2023-03-18T08:12:11.559Z,8.90
2023-03-18T08:14:38.570Z,8.13
2023-03-18T08:17:05.751Z,7.32
2023-03-18T08:19:32.879Z,6.78
2023-03-18T08:22:01.480Z,6.50
2023-03-18T08:24:31.264Z,9.52
2023-03-18T08:26:58.340Z,10.85
2023-03-18T08:29:25.497Z,6.53
2023-03-18T08:31:52.576Z,9.45
2023-03-18T08:34:19.665Z,5.95
2023-03-18T08:36:46.753Z,6.45
2023-03-18T08:39:14.734Z,8.10
2023-03-18T08:41:44.774Z,4.60
2023-03-18T08:44:13.046Z,10.23
2023-03-18T08:46:40.054Z,7.72
2023-03-18T08:49:10.548Z,5.68
2023-03-18T08:51:37.802Z,6.50
2023-03-18T08:54:05.753Z,5.50
2023-03-18T08:56:34.340Z,11.43
2023-03-18T08:59:01.522Z,7.38
2023-03-18T09:01:28.513Z,11.40
2023-03-18T09:03:57.906Z,6.38
2023-03-18T09:06:25.114Z,3.85
2023-03-18T09:08:52.245Z,4.22
2023-03-18T09:11:19.443Z,7.10
2023-03-18T09:13:46.602Z,6.20
2023-03-18T09:16:13.934Z,6.55
2023-03-18T09:18:44.766Z,4.15
2023-03-18T09:21:12.741Z,6.88
2023-03-18T09:23:40.044Z,10.35
2023-03-18T09:26:07.064Z,4.88
2023-03-18T09:28:34.302Z,6.28
2023-03-18T09:31:01.855Z,5.40
2023-03-18T09:33:29.011Z,6.35
2023-03-18T09:35:56.130Z,7.53
2023-03-18T09:38:24.002Z,4.32
2023-03-18T09:41:43.643Z,3.83
2023-03-18T09:44:33.796Z,3.85
2023-03-18T09:47:38.023Z,4.18
2023-03-18T09:50:30.795Z,5.25
2023-03-18T09:53:23.550Z,3.33
2023-03-18T09:56:00.929Z,6.47
2023-03-18T09:58:46.732Z,4.13
2023-03-18T10:01:15.940Z,4.07
2023-03-18T10:03:50.300Z,6.05
2023-03-18T10:06:22.210Z,2.10
2023-03-18T10:08:55.281Z,5.93
2023-03-18T10:11:47.495Z,5.78
2023-03-18T10:14:26.628Z,3.38
2023-03-18T10:17:26.103Z,5.55
2023-03-18T10:20:04.355Z,2.47
2023-03-18T10:22:37.903Z,10.82
2023-03-18T10:25:13.754Z,3.97
2023-03-18T10:28:17.516Z,5.10
2023-03-18T10:31:08.881Z,5.13
2023-03-18T10:33:52.683Z,3.78
2023-03-18T10:36:25.990Z,3.42
2023-03-18T10:38:55.499Z,4.38
2023-03-18T10:41:47.397Z,2.83
2023-03-18T10:44:32.447Z,2.67
2023-03-18T10:47:03.791Z,5.38
2023-03-18T10:49:37.064Z,4.38
2023-03-18T10:52:28.539Z,2.80
2023-03-18T10:54:57.470Z,4.30
2023-03-18T10:57:24.534Z,3.92
2023-03-18T10:59:52.889Z,2.60
2023-03-18T11:02:29.860Z,2.80
2023-03-18T11:05:04.744Z,2.80
2023-03-18T11:07:32.336Z,2.35
2023-03-18T11:10:19.249Z,2.13
2023-03-18T11:12:46.298Z,6.25
2023-03-18T11:15:14.720Z,3.08
2023-03-18T11:17:43.423Z,2.13
2023-03-18T11:20:25.289Z,0.93
2023-03-18T11:25:27.284Z,1.88
2023-03-18T11:28:02.804Z,2.97
2023-03-18T11:30:36.197Z,7.15
2023-03-18T11:33:04.897Z,4.38
2023-03-18T11:35:47.279Z,1.83
2023-03-18T11:38:24.600Z,3.80
2023-03-18T11:40:52.118Z,3.13
2023-03-18T11:43:25.562Z,2.15
2023-03-18T11:45:59.065Z,4.47
2023-03-18T11:48:44.422Z,4.25
2023-03-18T11:51:27.563Z,2.38
2023-03-18T11:54:25.111Z,2.15
2023-03-18T11:57:14.046Z,4.75
2023-03-18T12:00:00.665Z,1.75
2023-03-18T12:02:49.649Z,2.55
2023-03-18T12:05:32.660Z,4.65
2023-03-18T12:08:26.817Z,6.43
2023-03-18T12:11:07.746Z,2.90
2023-03-18T12:13:37.324Z,2.43
2023-03-18T12:16:14.617Z,4.10
2023-03-18T12:18:51.704Z,4.25
2023-03-18T12:21:40.296Z,3.28
2023-03-18T12:24:13.003Z,5.78
2023-03-18T12:27:07.566Z,1.55
2023-03-18T12:29:53.756Z,2.10
2023-03-18T12:32:40.969Z,3.45
2023-03-18T12:35:29.611Z,3.35
2023-03-18T12:38:21.631Z,1.67
2023-03-18T12:43:57.479Z,1.50
2023-03-18T12:47:06.864Z,2.55
2023-03-18T12:49:43.519Z,1.23
2023-03-18T12:52:45.162Z,2.47
2023-03-18T12:55:29.318Z,1.45
2023-03-18T12:58:03.081Z,3.20
2023-03-18T13:00:37.577Z,1.67
2023-03-18T13:03:28.176Z,4.13
2023-03-18T13:06:08.892Z,3.60
2023-03-18T13:09:04.402Z,1.55
2023-03-18T13:12:04.075Z,3.30
2023-03-18T13:14:42.462Z,2.05
2023-03-18T13:17:29.817Z,1.63
2023-03-18T13:20:16.438Z,3.35
2023-03-18T13:22:43.527Z,4.30
2023-03-18T13:25:32.353Z,1.52
2023-03-18T13:28:23.052Z,4.38
2023-03-18T13:31:05.839Z,3.92
2023-03-18T13:33:44.749Z,3.00
2023-03-18T13:36:39.227Z,2.60
2023-03-18T13:39:44.813Z,2.25
2023-03-18T13:42:22.293Z,2.22
2023-03-18T13:45:08.995Z,3.78
2023-03-18T13:47:38.928Z,2.25
2023-03-18T13:50:27.353Z,3.53
2023-03-18T13:52:55.872Z,3.33
2023-03-18T13:55:39.961Z,2.78
2023-03-18T13:58:26.908Z,2.92
2023-03-18T14:00:57.075Z,1.90
2023-03-18T14:03:32.615Z,2.30
2023-03-18T14:06:16.198Z,1.10
2023-03-18T14:08:44.028Z,3.75
2023-03-18T14:11:17.103Z,2.72
2023-03-18T14:13:49.639Z,0.70
2023-03-18T14:16:48.198Z,2.30
2023-03-18T14:19:19.455Z,1.00
2023-03-18T14:21:53.673Z,1.15
2023-03-18T14:24:24.781Z,3.97
2023-03-18T14:27:03.790Z,1.13
2023-03-18T14:29:37.003Z,1.55
2023-03-18T14:32:33.058Z,0.85
2023-03-18T14:35:28.145Z,3.05
2023-03-18T14:38:09.292Z,1.80
2023-03-18T14:40:41.337Z,0.90
2023-03-18T14:43:35.853Z,0.70
2023-03-18T14:46:20.859Z,0.93
2023-03-18T14:48:54.830Z,0.88
2023-03-18T14:51:24.479Z,2.92
2023-03-18T14:54:08.157Z,0.90
2023-03-18T14:56:42.610Z,1.60
2023-03-18T14:59:15.871Z,1.92
2023-03-18T15:01:50.788Z,1.67
2023-03-18T15:04:22.862Z,2.78
2023-03-18T15:06:51.523Z,1.77
2023-03-18T15:09:24.401Z,0.93
2023-03-18T15:11:51.981Z,3.00
2023-03-18T15:14:29.286Z,2.10
2023-03-18T15:16:59.329Z,1.15
2023-03-18T15:19:28.502Z,1.92
2023-03-18T15:21:58.939Z,1.48
2023-03-18T15:24:27.014Z,2.67
2023-03-18T15:27:00.327Z,1.58
2023-03-18T15:29:39.036Z,1.92
2023-03-18T15:32:10.584Z,1.00
2023-03-18T15:37:41.725Z,1.00
2023-03-18T15:40:24.759Z,1.02
2023-03-18T15:43:03.375Z,1.48
2023-03-18T15:45:31.104Z,3.47
2023-03-18T15:48:08.481Z,1.80
2023-03-18T15:50:37.117Z,0.60
2023-03-18T15:53:17.804Z,3.08
2023-03-18T15:55:51.007Z,1.58
2023-03-18T15:58:25.358Z,0.85
2023-03-18T16:00:54.421Z,3.75
2023-03-18T16:03:27.060Z,1.45
2023-03-18T16:05:58.377Z,2.13
2023-03-18T16:08:25.719Z,0.68
2023-03-18T16:10:58.239Z,3.53
2023-03-18T16:13:29.531Z,6.60
2023-03-18T16:15:56.937Z,25.67
2023-03-18T16:18:23.923Z,7.90
2023-03-18T16:20:51.511Z,10.65
2023-03-18T16:23:19.037Z,7.35
2023-03-18T16:25:52.029Z,7.07
2023-03-18T16:28:25.915Z,3.33
2023-03-18T16:30:55.807Z,3.78
2023-03-18T16:33:24.068Z,4.35
2023-03-18T16:36:02.581Z,8.35
2023-03-18T16:38:31.346Z,3.38
2023-03-18T16:40:58.684Z,3.13
2023-03-18T16:43:28.585Z,3.85
2023-03-18T16:46:05.846Z,4.32
2023-03-18T16:48:33.398Z,4.03
2023-03-18T16:51:02.780Z,2.33
2023-03-18T16:53:32.891Z,1.27
2023-03-18T16:56:04.476Z,1.70
2023-03-18T16:58:36.946Z,2.20
2023-03-18T17:01:08.470Z,3.72
2023-03-18T17:03:40.773Z,3.03
2023-03-18T17:06:08.864Z,7.38
2023-03-18T17:08:36.851Z,3.28
2023-03-18T17:11:04.719Z,2.38
2023-03-18T17:13:35.064Z,1.65
2023-03-18T17:16:02.287Z,6.93
2023-03-18T17:18:30.274Z,4.25
2023-03-18T17:20:57.656Z,4.93
2023-03-18T17:23:27.352Z,7.82
2023-03-18T17:25:56.993Z,4.63
2023-03-18T17:28:37.430Z,4.97
2023-03-18T17:31:05.233Z,3.97
2023-03-18T17:33:36.675Z,2.17
2023-03-18T17:36:05.163Z,4.68
2023-03-18T17:38:32.407Z,5.22
2023-03-18T17:41:00.409Z,2.17
2023-03-18T17:43:34.414Z,2.70
2023-03-18T17:46:03.291Z,10.52
2023-03-18T17:48:33.105Z,18.35
2023-03-18T17:51:04.435Z,66.57
2023-03-18T17:53:37.663Z,19.48
2023-03-18T17:56:06.836Z,11.20
2023-03-18T17:58:34.967Z,7.00
2023-03-18T18:01:07.882Z,4.57
2023-03-18T18:03:38.814Z,4.95
2023-03-18T18:06:07.142Z,12.77
2023-03-18T18:08:34.358Z,124.40
2023-03-18T18:11:23.864Z,180.98
2023-03-18T18:13:53.840Z,210.60
2023-03-18T18:16:21.634Z,192.57
2023-03-18T18:18:50.029Z,448.60
2023-03-18T18:21:20.773Z,209.57
2023-03-18T18:23:48.690Z,142.93
2023-03-18T18:26:18.441Z,253.43
2023-03-18T18:28:48.241Z,183.10
2023-03-18T18:31:20.851Z,144.65
2023-03-18T18:33:50.292Z,260.08
2023-03-18T18:36:18.627Z,157.45
2023-03-18T18:38:46.184Z,110.68
2023-03-18T18:41:13.398Z,48.50
2023-03-18T18:43:41.097Z,46.80
2023-03-18T18:46:15.464Z,61.10
2023-03-18T18:48:47.205Z,102.07
2023-03-18T18:51:19.577Z,301.88
2023-03-18T18:53:47.654Z,90.55
2023-03-18T18:56:23.569Z,45.42
2023-03-18T18:58:52.119Z,18.05
2023-03-18T19:01:20.401Z,4.57
2023-03-18T19:03:48.356Z,7.55
2023-03-18T19:06:32.340Z,4.88
2023-03-18T19:09:01.208Z,2.28
2023-03-18T19:11:30.414Z,3.08
2023-03-18T19:14:26.135Z,0.82
2023-03-18T19:16:54.668Z,7.22
2023-03-18T19:19:27.281Z,3.20
2023-03-18T19:21:54.452Z,3.72
2023-03-18T19:24:33.137Z,2.42
2023-03-18T19:27:11.679Z,3.20
2023-03-18T19:29:38.716Z,2.25
2023-03-18T19:32:08.642Z,2.80
2023-03-18T19:34:35.706Z,0.35
2023-03-18T19:37:04.314Z,0.93
2023-03-18T19:39:31.851Z,2.63
2023-03-18T19:41:58.888Z,2.13
2023-03-18T19:44:27.061Z,0.88
2023-03-18T19:47:01.615Z,2.45
2023-03-18T19:49:33.776Z,1.48
2023-03-18T19:52:02.421Z,2.22
2023-03-18T19:54:54.091Z,0.47
2023-03-18T19:57:24.442Z,2.17
2023-03-18T19:59:53.709Z,1.10
2023-03-18T20:02:23.551Z,0.75
2023-03-18T20:04:52.281Z,3.40
2023-03-18T20:07:21.095Z,2.33
2023-03-18T20:09:49.643Z,0.60
2023-03-18T20:12:30.468Z,1.40
2023-03-18T20:14:57.704Z,2.28
2023-03-18T20:17:30.979Z,0.32
2023-03-18T20:19:59.079Z,0.52
2023-03-18T20:22:38.631Z,0.50
2023-03-18T20:25:10.956Z,1.10
2023-03-18T20:27:39.281Z,0.60
2023-03-18T20:30:24.653Z,1.60
2023-03-18T20:32:55.149Z,2.55
2023-03-18T20:35:27.453Z,0.65
2023-03-18T20:37:56.338Z,1.63
2023-03-18T20:40:28.650Z,0.88
2023-03-18T20:42:56.185Z,1.05
2023-03-18T20:45:24.660Z,1.15
2023-03-18T20:47:54.766Z,0.60
2023-03-18T20:50:28.486Z,1.63
2023-03-18T20:52:55.931Z,1.23
2023-03-18T20:55:31.367Z,2.40
2023-03-18T20:58:00.119Z,0.55
2023-03-18T21:00:30.253Z,6.00
2023-03-18T21:02:58.990Z,2.42
2023-03-18T21:05:26.726Z,0.68
2023-03-18T21:07:54.055Z,1.88
2023-03-18T21:10:24.827Z,2.72
2023-03-18T21:12:52.304Z,1.65
2023-03-18T21:15:23.054Z,1.00
2023-03-18T21:17:59.807Z,0.82
2023-03-18T21:20:29.008Z,2.28
2023-03-18T21:22:57.151Z,0.47
2023-03-18T21:25:27.581Z,3.90
2023-03-18T21:27:55.159Z,1.48
2023-03-18T21:30:25.096Z,3.53
2023-03-18T21:32:52.651Z,3.20
2023-03-18T21:35:26.910Z,3.60
2023-03-18T21:37:54.663Z,1.85
2023-03-18T21:40:27.927Z,5.07
2023-03-18T21:42:55.302Z,2.83
2023-03-18T21:45:23.852Z,1.73
2023-03-18T21:47:52.919Z,1.70
2023-03-18T21:50:25.169Z,1.30
2023-03-18T21:52:53.877Z,0.68
2023-03-18T21:55:21.819Z,1.70
2023-03-18T21:57:49.416Z,1.85
2023-03-18T22:00:19.898Z,0.75
2023-03-18T22:02:48.041Z,1.23
2023-03-18T22:05:21.754Z,9.63
2023-03-18T22:07:50.920Z,2.10
2023-03-18T22:10:23.294Z,1.77
2023-03-18T22:12:51.078Z,1.92
2023-03-18T22:15:37.830Z,2.25
2023-03-18T22:18:06.491Z,0.70
2023-03-18T22:20:35.789Z,1.52
2023-03-18T22:23:21.338Z,3.47
2023-03-18T22:25:51.572Z,1.27
2023-03-18T22:28:19.652Z,1.85
2023-03-18T22:30:52.093Z,1.17
2023-03-18T22:33:28.967Z,3.80
2023-03-18T22:35:56.785Z,3.28
2023-03-18T22:38:27.090Z,1.23
2023-03-18T22:40:56.867Z,0.90
2023-03-18T22:43:34.664Z,1.92
2023-03-18T22:46:05.448Z,1.70
2023-03-18T22:48:33.116Z,1.63
2023-03-18T22:51:00.822Z,2.40
2023-03-18T22:53:31.873Z,1.33
2023-03-18T22:56:06.381Z,1.60
2023-03-18T22:58:36.444Z,2.92
2023-03-18T23:01:04.654Z,2.47
2023-03-18T23:03:34.430Z,1.63
2023-03-18T23:06:03.050Z,2.67
2023-03-18T23:08:30.627Z,3.03
2023-03-18T23:11:01.752Z,1.67
2023-03-18T23:13:35.973Z,1.23
2023-03-18T23:16:05.363Z,4.88
2023-03-18T23:18:32.768Z,1.63
2023-03-18T23:21:00.162Z,3.75
2023-03-18T23:23:28.464Z,2.60
2023-03-18T23:25:55.520Z,1.00
2023-03-18T23:28:22.965Z,1.52
2023-03-18T23:30:52.248Z,1.88
2023-03-18T23:33:20.215Z,2.63
2023-03-18T23:35:48.231Z,2.88
2023-03-18T23:38:15.517Z,2.20
2023-03-18T23:40:42.682Z,2.17
2023-03-18T23:43:09.867Z,1.63
2023-03-18T23:45:38.653Z,5.30
2023-03-18T23:48:06.926Z,1.60
2023-03-18T23:50:34.574Z,2.17
2023-03-18T23:53:01.901Z,0.98
2023-03-18T23:55:36.131Z,1.35
2023-03-18T23:58:03.926Z,2.85
